sensor_id;sensor_type;location;lat;lon;timestamp;temperature;humidity
52799;DHT22;38667;42.872;74.622;2022-07-15T00:00:35;19.90;57.40
52799;DHT22;38667;42.872;74.622;2022-07-15T00:03:04;19.90;56.90
52799;DHT22;38667;42.872;74.622;2022-07-15T00:05:30;20.00;55.00
52799;DHT22;38667;42.872;74.622;2022-07-15T00:07:56;20.00;56.00
52799;DHT22;38667;42.872;74.622;2022-07-15T00:10:23;20.00;55.90
52799;DHT22;38667;42.872;74.622;2022-07-15T00:12:51;20.00;55.70
52799;DHT22;38667;42.872;74.622;2022-07-15T00:15:20;20.10;55.00
52799;DHT22;38667;42.872;74.622;2022-07-15T00:17:47;20.20;54.90
52799;DHT22;38667;42.872;74.622;2022-07-15T00:20:16;20.10;54.90
52799;DHT22;38667;42.872;74.622;2022-07-15T00:22:43;20.10;55.00
52799;DHT22;38667;42.872;74.622;2022-07-15T00:25:10;20.00;54.50
52799;DHT22;38667;42.872;74.622;2022-07-15T00:27:36;20.10;54.70
52799;DHT22;38667;42.872;74.622;2022-07-15T00:30:15;20.10;54.90
52799;DHT22;38667;42.872;74.622;2022-07-15T00:32:41;20.20;54.80
52799;DHT22;38667;42.872;74.622;2022-07-15T00:35:08;20.20;57.30
52799;DHT22;38667;42.872;74.622;2022-07-15T00:37:35;20.20;56.10
52799;DHT22;38667;42.872;74.622;2022-07-15T00:40:02;20.10;57.30
52799;DHT22;38667;42.872;74.622;2022-07-15T00:42:28;20.10;56.60
52799;DHT22;38667;42.872;74.622;2022-07-15T00:44:54;20.10;57.70
52799;DHT22;38667;42.872;74.622;2022-07-15T00:47:21;20.00;57.60
52799;DHT22;38667;42.872;74.622;2022-07-15T00:49:47;20.10;57.40
52799;DHT22;38667;42.872;74.622;2022-07-15T00:52:13;20.10;57.90
52799;DHT22;38667;42.872;74.622;2022-07-15T00:54:43;20.10;59.50
52799;DHT22;38667;42.872;74.622;2022-07-15T00:57:09;20.10;58.10
52799;DHT22;38667;42.872;74.622;2022-07-15T00:59:36;20.30;58.90
52799;DHT22;38667;42.872;74.622;2022-07-15T01:02:04;20.30;58.30
52799;DHT22;38667;42.872;74.622;2022-07-15T01:04:32;20.40;59.60
52799;DHT22;38667;42.872;74.622;2022-07-15T01:06:59;20.40;59.50
52799;DHT22;38667;42.872;74.622;2022-07-15T01:09:25;20.40;59.10
52799;DHT22;38667;42.872;74.622;2022-07-15T01:11:53;20.40;60.70
52799;DHT22;38667;42.872;74.622;2022-07-15T01:14:19;20.40;58.70
52799;DHT22;38667;42.872;74.622;2022-07-15T01:16:46;20.60;57.50
52799;DHT22;38667;42.872;74.622;2022-07-15T01:19:12;20.80;54.70
52799;DHT22;38667;42.872;74.622;2022-07-15T01:21:40;21.00;55.30
52799;DHT22;38667;42.872;74.622;2022-07-15T01:24:06;21.20;54.90
52799;DHT22;38667;42.872;74.622;2022-07-15T01:26:33;21.20;57.50
52799;DHT22;38667;42.872;74.622;2022-07-15T01:28:59;21.20;57.00
52799;DHT22;38667;42.872;74.622;2022-07-15T01:31:25;21.20;57.10
52799;DHT22;38667;42.872;74.622;2022-07-15T01:33:52;21.20;57.50
52799;DHT22;38667;42.872;74.622;2022-07-15T01:36:18;21.20;57.10
52799;DHT22;38667;42.872;74.622;2022-07-15T01:38:46;21.30;58.70
52799;DHT22;38667;42.872;74.622;2022-07-15T01:41:12;21.30;58.50
52799;DHT22;38667;42.872;74.622;2022-07-15T01:43:38;21.40;56.90
52799;DHT22;38667;42.872;74.622;2022-07-15T01:46:05;21.40;54.50
52799;DHT22;38667;42.872;74.622;2022-07-15T01:48:31;21.60;55.10
52799;DHT22;38667;42.872;74.622;2022-07-15T01:50:59;21.60;55.60
52799;DHT22;38667;42.872;74.622;2022-07-15T01:53:26;21.70;54.80
52799;DHT22;38667;42.872;74.622;2022-07-15T01:55:54;21.70;54.70
52799;DHT22;38667;42.872;74.622;2022-07-15T01:58:21;21.80;54.40
52799;DHT22;38667;42.872;74.622;2022-07-15T02:00:48;21.90;52.60
52799;DHT22;38667;42.872;74.622;2022-07-15T02:03:14;22.00;51.90
52799;DHT22;38667;42.872;74.622;2022-07-15T02:05:41;22.00;53.40
52799;DHT22;38667;42.872;74.622;2022-07-15T02:08:07;22.10;51.30
52799;DHT22;38667;42.872;74.622;2022-07-15T02:10:33;22.10;52.40
52799;DHT22;38667;42.872;74.622;2022-07-15T02:13:01;22.20;51.70
52799;DHT22;38667;42.872;74.622;2022-07-15T02:15:28;22.30;52.10
52799;DHT22;38667;42.872;74.622;2022-07-15T02:17:54;22.30;50.80
52799;DHT22;38667;42.872;74.622;2022-07-15T02:20:20;22.40;50.70
52799;DHT22;38667;42.872;74.622;2022-07-15T02:22:46;22.50;48.90
52799;DHT22;38667;42.872;74.622;2022-07-15T02:25:13;22.60;48.50
52799;DHT22;38667;42.872;74.622;2022-07-15T02:27:39;22.70;48.10
52799;DHT22;38667;42.872;74.622;2022-07-15T02:30:08;22.80;48.20
52799;DHT22;38667;42.872;74.622;2022-07-15T02:32:35;22.80;48.20
52799;DHT22;38667;42.872;74.622;2022-07-15T02:35:01;22.90;47.90
52799;DHT22;38667;42.872;74.622;2022-07-15T02:37:27;23.00;47.80
52799;DHT22;38667;42.872;74.622;2022-07-15T02:39:54;23.00;48.90
52799;DHT22;38667;42.872;74.622;2022-07-15T02:42:20;23.10;47.60
52799;DHT22;38667;42.872;74.622;2022-07-15T02:44:46;23.10;47.30
52799;DHT22;38667;42.872;74.622;2022-07-15T02:47:14;23.30;47.10
52799;DHT22;38667;42.872;74.622;2022-07-15T02:49:40;23.30;47.10
52799;DHT22;38667;42.872;74.622;2022-07-15T02:52:06;23.40;47.00
52799;DHT22;38667;42.872;74.622;2022-07-15T02:54:33;23.50;46.80
52799;DHT22;38667;42.872;74.622;2022-07-15T02:56:59;23.60;46.50
52799;DHT22;38667;42.872;74.622;2022-07-15T02:59:25;23.70;46.40
52799;DHT22;38667;42.872;74.622;2022-07-15T03:01:52;23.80;46.30
52799;DHT22;38667;42.872;74.622;2022-07-15T03:04:20;24.00;46.30
52799;DHT22;38667;42.872;74.622;2022-07-15T03:06:46;24.10;46.20
52799;DHT22;38667;42.872;74.622;2022-07-15T03:09:12;24.20;46.00
52799;DHT22;38667;42.872;74.622;2022-07-15T03:11:38;24.30;45.70
52799;DHT22;38667;42.872;74.622;2022-07-15T03:14:05;24.40;45.10
52799;DHT22;38667;42.872;74.622;2022-07-15T03:16:31;24.50;44.50
52799;DHT22;38667;42.872;74.622;2022-07-15T03:18:57;24.50;43.80
52799;DHT22;38667;42.872;74.622;2022-07-15T03:21:25;24.70;43.90
52799;DHT22;38667;42.872;74.622;2022-07-15T03:23:51;24.80;43.70
52799;DHT22;38667;42.872;74.622;2022-07-15T03:26:18;24.90;43.90
52799;DHT22;38667;42.872;74.622;2022-07-15T03:28:44;24.90;43.30
52799;DHT22;38667;42.872;74.622;2022-07-15T03:31:10;25.00;43.20
52799;DHT22;38667;42.872;74.622;2022-07-15T03:33:37;25.10;43.20
52799;DHT22;38667;42.872;74.622;2022-07-15T03:36:04;25.20;42.50
52799;DHT22;38667;42.872;74.622;2022-07-15T03:38:32;25.40;41.60
52799;DHT22;38667;42.872;74.622;2022-07-15T03:40:58;25.40;40.90
52799;DHT22;38667;42.872;74.622;2022-07-15T03:43:24;25.40;41.10
52799;DHT22;38667;42.872;74.622;2022-07-15T03:45:51;25.30;41.20
52799;DHT22;38667;42.872;74.622;2022-07-15T03:48:17;25.30;40.90
52799;DHT22;38667;42.872;74.622;2022-07-15T03:50:43;25.30;40.20
52799;DHT22;38667;42.872;74.622;2022-07-15T03:53:10;25.50;39.60
52799;DHT22;38667;42.872;74.622;2022-07-15T03:55:38;25.50;40.20
52799;DHT22;38667;42.872;74.622;2022-07-15T03:58:04;25.50;39.60
52799;DHT22;38667;42.872;74.622;2022-07-15T04:00:31;25.50;39.60
52799;DHT22;38667;42.872;74.622;2022-07-15T04:02:57;25.50;39.70
52799;DHT22;38667;42.872;74.622;2022-07-15T04:05:23;25.50;39.50
52799;DHT22;38667;42.872;74.622;2022-07-15T04:07:50;25.50;39.20
52799;DHT22;38667;42.872;74.622;2022-07-15T04:10:16;25.50;38.50
52799;DHT22;38667;42.872;74.622;2022-07-15T04:12:44;25.50;38.40
52799;DHT22;38667;42.872;74.622;2022-07-15T04:15:10;25.50;38.60
52799;DHT22;38667;42.872;74.622;2022-07-15T04:17:37;25.50;38.90
52799;DHT22;38667;42.872;74.622;2022-07-15T04:20:04;25.50;38.80
52799;DHT22;38667;42.872;74.622;2022-07-15T04:22:30;25.60;38.30
52799;DHT22;38667;42.872;74.622;2022-07-15T04:25:04;25.70;38.40
52799;DHT22;38667;42.872;74.622;2022-07-15T04:27:31;25.70;38.10
52799;DHT22;38667;42.872;74.622;2022-07-15T04:29:58;25.70;37.90
52799;DHT22;38667;42.872;74.622;2022-07-15T04:32:25;25.80;37.90
52799;DHT22;38667;42.872;74.622;2022-07-15T04:34:51;25.80;39.10
52799;DHT22;38667;42.872;74.622;2022-07-15T04:37:17;25.80;38.20
52799;DHT22;38667;42.872;74.622;2022-07-15T04:39:44;25.80;38.60
52799;DHT22;38667;42.872;74.622;2022-07-15T04:42:10;25.70;38.00
52799;DHT22;38667;42.872;74.622;2022-07-15T04:44:36;25.70;38.30
52799;DHT22;38667;42.872;74.622;2022-07-15T04:47:04;25.70;37.70
52799;DHT22;38667;42.872;74.622;2022-07-15T04:49:31;25.80;37.40
52799;DHT22;38667;42.872;74.622;2022-07-15T04:51:57;25.90;37.50
52799;DHT22;38667;42.872;74.622;2022-07-15T04:54:23;25.90;38.00
52799;DHT22;38667;42.872;74.622;2022-07-15T04:56:50;25.90;38.30
52799;DHT22;38667;42.872;74.622;2022-07-15T04:59:16;25.90;38.30
52799;DHT22;38667;42.872;74.622;2022-07-15T05:01:42;26.00;40.10
52799;DHT22;38667;42.872;74.622;2022-07-15T05:04:10;26.10;38.80
52799;DHT22;38667;42.872;74.622;2022-07-15T05:06:36;26.10;38.30
52799;DHT22;38667;42.872;74.622;2022-07-15T05:09:03;26.10;38.10
52799;DHT22;38667;42.872;74.622;2022-07-15T05:11:29;26.20;39.00
52799;DHT22;38667;42.872;74.622;2022-07-15T05:13:55;26.30;37.80
52799;DHT22;38667;42.872;74.622;2022-07-15T05:16:21;26.30;38.20
52799;DHT22;38667;42.872;74.622;2022-07-15T05:18:48;26.20;38.10
52799;DHT22;38667;42.872;74.622;2022-07-15T05:21:16;26.10;38.10
52799;DHT22;38667;42.872;74.622;2022-07-15T05:23:42;26.00;38.10
52799;DHT22;38667;42.872;74.622;2022-07-15T05:26:08;26.10;38.00
52799;DHT22;38667;42.872;74.622;2022-07-15T05:28:35;26.10;37.80
52799;DHT22;38667;42.872;74.622;2022-07-15T05:31:01;26.10;38.00
52799;DHT22;38667;42.872;74.622;2022-07-15T05:33:27;26.10;37.70
52799;DHT22;38667;42.872;74.622;2022-07-15T05:35:54;26.30;37.20
52799;DHT22;38667;42.872;74.622;2022-07-15T05:38:21;26.60;36.60
52799;DHT22;38667;42.872;74.622;2022-07-15T05:40:48;26.80;37.00
52799;DHT22;38667;42.872;74.622;2022-07-15T05:43:14;27.00;37.50
52799;DHT22;38667;42.872;74.622;2022-07-15T05:45:40;27.00;37.70
52799;DHT22;38667;42.872;74.622;2022-07-15T05:48:07;26.90;37.30
52799;DHT22;38667;42.872;74.622;2022-07-15T05:50:33;26.90;37.90
52799;DHT22;38667;42.872;74.622;2022-07-15T05:53:00;27.00;38.60
52799;DHT22;38667;42.872;74.622;2022-07-15T05:55:28;27.20;36.80
52799;DHT22;38667;42.872;74.622;2022-07-15T05:57:54;27.50;37.00
52799;DHT22;38667;42.872;74.622;2022-07-15T06:00:20;27.50;37.30
52799;DHT22;38667;42.872;74.622;2022-07-15T06:02:47;27.50;37.10
52799;DHT22;38667;42.872;74.622;2022-07-15T06:05:13;27.60;37.00
52799;DHT22;38667;42.872;74.622;2022-07-15T06:07:39;27.80;37.00
52799;DHT22;38667;42.872;74.622;2022-07-15T06:10:07;28.10;35.80
52799;DHT22;38667;42.872;74.622;2022-07-15T06:12:35;28.40;34.70
52799;DHT22;38667;42.872;74.622;2022-07-15T06:15:02;28.90;34.00
52799;DHT22;38667;42.872;74.622;2022-07-15T06:17:28;28.70;35.20
52799;DHT22;38667;42.872;74.622;2022-07-15T06:19:54;28.60;35.00
52799;DHT22;38667;42.872;74.622;2022-07-15T06:22:21;28.30;35.80
52799;DHT22;38667;42.872;74.622;2022-07-15T06:24:47;28.10;36.20
52799;DHT22;38667;42.872;74.622;2022-07-15T06:27:13;28.50;33.50
52799;DHT22;38667;42.872;74.622;2022-07-15T06:29:42;28.50;35.00
52799;DHT22;38667;42.872;74.622;2022-07-15T06:32:08;28.30;35.60
52799;DHT22;38667;42.872;74.622;2022-07-15T06:34:34;28.20;36.10
52799;DHT22;38667;42.872;74.622;2022-07-15T06:37:01;28.00;36.50
52799;DHT22;38667;42.872;74.622;2022-07-15T06:39:27;27.90;35.90
52799;DHT22;38667;42.872;74.622;2022-07-15T06:41:53;28.00;36.00
52799;DHT22;38667;42.872;74.622;2022-07-15T06:44:20;27.90;36.10
52799;DHT22;38667;42.872;74.622;2022-07-15T06:46:47;28.00;35.70
52799;DHT22;38667;42.872;74.622;2022-07-15T06:49:14;28.20;36.20
52799;DHT22;38667;42.872;74.622;2022-07-15T06:51:40;28.30;35.80
52799;DHT22;38667;42.872;74.622;2022-07-15T06:54:06;28.20;36.30
52799;DHT22;38667;42.872;74.622;2022-07-15T06:56:34;28.20;36.10
52799;DHT22;38667;42.872;74.622;2022-07-15T06:59:00;28.50;35.80
52799;DHT22;38667;42.872;74.622;2022-07-15T07:01:26;28.70;35.40
52799;DHT22;38667;42.872;74.622;2022-07-15T07:03:54;28.50;35.60
52799;DHT22;38667;42.872;74.622;2022-07-15T07:06:21;28.40;35.70
52799;DHT22;38667;42.872;74.622;2022-07-15T07:08:47;28.40;36.00
52799;DHT22;38667;42.872;74.622;2022-07-15T07:11:14;28.60;33.60
52799;DHT22;38667;42.872;74.622;2022-07-15T07:13:40;29.00;35.00
52799;DHT22;38667;42.872;74.622;2022-07-15T07:16:07;29.10;34.70
52799;DHT22;38667;42.872;74.622;2022-07-15T07:18:34;28.90;34.80
52799;DHT22;38667;42.872;74.622;2022-07-15T07:21:02;28.80;35.10
52799;DHT22;38667;42.872;74.622;2022-07-15T07:23:29;28.80;35.60
52799;DHT22;38667;42.872;74.622;2022-07-15T07:25:55;28.70;35.40
52799;DHT22;38667;42.872;74.622;2022-07-15T07:28:22;28.70;34.80
52799;DHT22;38667;42.872;74.622;2022-07-15T07:30:48;28.70;35.00
52799;DHT22;38667;42.872;74.622;2022-07-15T07:33:14;28.70;34.60
52799;DHT22;38667;42.872;74.622;2022-07-15T07:35:41;28.60;34.70
52799;DHT22;38667;42.872;74.622;2022-07-15T07:38:09;28.70;33.10
52799;DHT22;38667;42.872;74.622;2022-07-15T07:40:35;29.00;34.40
52799;DHT22;38667;42.872;74.622;2022-07-15T07:43:01;29.20;33.90
52799;DHT22;38667;42.872;74.622;2022-07-15T07:45:28;29.50;33.30
52799;DHT22;38667;42.872;74.622;2022-07-15T07:47:54;29.50;34.00
52799;DHT22;38667;42.872;74.622;2022-07-15T07:50:21;29.80;33.10
52799;DHT22;38667;42.872;74.622;2022-07-15T07:52:47;29.70;33.60
52799;DHT22;38667;42.872;74.622;2022-07-15T07:55:17;29.50;33.10
52799;DHT22;38667;42.872;74.622;2022-07-15T07:57:50;29.50;33.40
52799;DHT22;38667;42.872;74.622;2022-07-15T08:00:17;29.30;32.90
52799;DHT22;38667;42.872;74.622;2022-07-15T08:02:44;29.10;33.70
52799;DHT22;38667;42.872;74.622;2022-07-15T08:05:11;29.30;33.60
52799;DHT22;38667;42.872;74.622;2022-07-15T08:07:38;29.30;34.20
52799;DHT22;38667;42.872;74.622;2022-07-15T08:10:05;29.10;34.40
52799;DHT22;38667;42.872;74.622;2022-07-15T08:12:33;29.60;33.80
52799;DHT22;38667;42.872;74.622;2022-07-15T08:15:00;29.70;33.50
52799;DHT22;38667;42.872;74.622;2022-07-15T08:17:26;29.70;33.00
52799;DHT22;38667;42.872;74.622;2022-07-15T08:19:53;29.80;32.80
52799;DHT22;38667;42.872;74.622;2022-07-15T08:22:20;29.70;31.90
52799;DHT22;38667;42.872;74.622;2022-07-15T08:24:46;29.70;32.40
52799;DHT22;38667;42.872;74.622;2022-07-15T08:27:12;29.70;32.70
52799;DHT22;38667;42.872;74.622;2022-07-15T08:29:40;29.80;30.60
52799;DHT22;38667;42.872;74.622;2022-07-15T08:32:06;30.30;30.70
52799;DHT22;38667;42.872;74.622;2022-07-15T08:34:33;30.20;32.10
52799;DHT22;38667;42.872;74.622;2022-07-15T08:36:59;29.90;32.90
52799;DHT22;38667;42.872;74.622;2022-07-15T08:39:25;30.20;32.30
52799;DHT22;38667;42.872;74.622;2022-07-15T08:41:52;30.30;32.30
52799;DHT22;38667;42.872;74.622;2022-07-15T08:44:18;30.40;29.40
52799;DHT22;38667;42.872;74.622;2022-07-15T08:46:47;30.20;31.70
52799;DHT22;38667;42.872;74.622;2022-07-15T08:49:15;30.30;30.80
52799;DHT22;38667;42.872;74.622;2022-07-15T08:51:44;30.50;30.70
52799;DHT22;38667;42.872;74.622;2022-07-15T08:54:11;30.40;31.40
52799;DHT22;38667;42.872;74.622;2022-07-15T08:56:37;30.10;31.60
52799;DHT22;38667;42.872;74.622;2022-07-15T08:59:04;29.90;31.60
52799;DHT22;38667;42.872;74.622;2022-07-15T09:01:31;29.90;31.50
52799;DHT22;38667;42.872;74.622;2022-07-15T09:04:00;30.10;30.50
52799;DHT22;38667;42.872;74.622;2022-07-15T09:06:34;30.60;29.80
52799;DHT22;38667;42.872;74.622;2022-07-15T09:09:26;30.50;31.30
52799;DHT22;38667;42.872;74.622;2022-07-15T09:12:00;30.10;32.40
52799;DHT22;38667;42.872;74.622;2022-07-15T09:14:28;30.00;29.40
52799;DHT22;38667;42.872;74.622;2022-07-15T09:17:05;30.00;31.80
52799;DHT22;38667;42.872;74.622;2022-07-15T09:19:58;30.00;28.80
52799;DHT22;38667;42.872;74.622;2022-07-15T09:22:25;30.30;30.60
52799;DHT22;38667;42.872;74.622;2022-07-15T09:25:01;30.10;31.20
52799;DHT22;38667;42.872;74.622;2022-07-15T09:27:29;29.50;31.40
52799;DHT22;38667;42.872;74.622;2022-07-15T09:30:01;29.00;32.10
52799;DHT22;38667;42.872;74.622;2022-07-15T09:32:37;28.80;32.00
52799;DHT22;38667;42.872;74.622;2022-07-15T09:35:07;29.00;32.10
52799;DHT22;38667;42.872;74.622;2022-07-15T09:37:33;28.90;30.60
52799;DHT22;38667;42.872;74.622;2022-07-15T09:39:59;28.70;31.40
52799;DHT22;38667;42.872;74.622;2022-07-15T09:42:26;28.80;31.20
52799;DHT22;38667;42.872;74.622;2022-07-15T09:44:52;28.80;31.20
52799;DHT22;38667;42.872;74.622;2022-07-15T09:47:19;28.80;30.30
52799;DHT22;38667;42.872;74.622;2022-07-15T09:49:46;29.10;31.50
52799;DHT22;38667;42.872;74.622;2022-07-15T09:52:14;29.00;31.20
52799;DHT22;38667;42.872;74.622;2022-07-15T09:54:43;28.80;30.80
52799;DHT22;38667;42.872;74.622;2022-07-15T09:57:12;28.80;30.30
52799;DHT22;38667;42.872;74.622;2022-07-15T09:59:39;28.90;31.30
52799;DHT22;38667;42.872;74.622;2022-07-15T10:02:05;28.90;31.40
52799;DHT22;38667;42.872;74.622;2022-07-15T10:04:31;28.40;32.20
52799;DHT22;38667;42.872;74.622;2022-07-15T10:06:59;28.40;31.70
52799;DHT22;38667;42.872;74.622;2022-07-15T10:09:29;28.50;31.50
52799;DHT22;38667;42.872;74.622;2022-07-15T10:11:59;28.50;31.30
52799;DHT22;38667;42.872;74.622;2022-07-15T10:14:37;28.40;31.50
52799;DHT22;38667;42.872;74.622;2022-07-15T10:17:43;28.40;31.60
52799;DHT22;38667;42.872;74.622;2022-07-15T10:20:40;28.70;31.80
52799;DHT22;38667;42.872;74.622;2022-07-15T10:23:23;28.40;32.00
52799;DHT22;38667;42.872;74.622;2022-07-15T10:26:04;28.80;31.10
52799;DHT22;38667;42.872;74.622;2022-07-15T10:28:50;28.50;32.10
52799;DHT22;38667;42.872;74.622;2022-07-15T10:31:19;28.80;31.40
52799;DHT22;38667;42.872;74.622;2022-07-15T10:34:19;28.50;31.30
52799;DHT22;38667;42.872;74.622;2022-07-15T10:36:56;28.20;32.00
52799;DHT22;38667;42.872;74.622;2022-07-15T10:39:24;28.20;34.80
52799;DHT22;38667;42.872;74.622;2022-07-15T10:41:54;28.80;31.40
52799;DHT22;38667;42.872;74.622;2022-07-15T10:44:20;28.50;31.80
52799;DHT22;38667;42.872;74.622;2022-07-15T10:46:47;28.70;31.60
52799;DHT22;38667;42.872;74.622;2022-07-15T10:49:30;28.60;30.80
52799;DHT22;38667;42.872;74.622;2022-07-15T10:52:12;28.20;31.40
52799;DHT22;38667;42.872;74.622;2022-07-15T10:54:44;28.10;32.00
52799;DHT22;38667;42.872;74.622;2022-07-15T10:57:13;28.90;29.30
52799;DHT22;38667;42.872;74.622;2022-07-15T10:59:47;29.60;30.20
52799;DHT22;38667;42.872;74.622;2022-07-15T11:02:15;28.90;31.40
52799;DHT22;38667;42.872;74.622;2022-07-15T11:04:43;28.60;31.00
52799;DHT22;38667;42.872;74.622;2022-07-15T11:07:20;28.40;30.80
52799;DHT22;38667;42.872;74.622;2022-07-15T11:09:50;28.30;30.30
52799;DHT22;38667;42.872;74.622;2022-07-15T11:12:19;28.40;29.80
52799;DHT22;38667;42.872;74.622;2022-07-15T11:14:50;28.40;30.90
52799;DHT22;38667;42.872;74.622;2022-07-15T11:17:19;28.20;30.20
52799;DHT22;38667;42.872;74.622;2022-07-15T11:19:51;28.30;31.20
52799;DHT22;38667;42.872;74.622;2022-07-15T11:22:18;28.00;31.60
52799;DHT22;38667;42.872;74.622;2022-07-15T11:24:45;28.00;32.40
52799;DHT22;38667;42.872;74.622;2022-07-15T11:27:11;28.40;30.90
52799;DHT22;38667;42.872;74.622;2022-07-15T11:29:44;29.50;29.60
52799;DHT22;38667;42.872;74.622;2022-07-15T11:32:11;29.60;28.70
52799;DHT22;38667;42.872;74.622;2022-07-15T11:34:42;29.50;29.30
52799;DHT22;38667;42.872;74.622;2022-07-15T11:37:09;29.20;30.50
52799;DHT22;38667;42.872;74.622;2022-07-15T11:39:36;28.60;31.20
52799;DHT22;38667;42.872;74.622;2022-07-15T11:42:02;28.20;31.40
52799;DHT22;38667;42.872;74.622;2022-07-15T11:44:29;27.90;31.60
52799;DHT22;38667;42.872;74.622;2022-07-15T11:46:57;27.90;31.70
52799;DHT22;38667;42.872;74.622;2022-07-15T11:49:28;27.80;31.40
52799;DHT22;38667;42.872;74.622;2022-07-15T11:51:54;27.80;31.30
52799;DHT22;38667;42.872;74.622;2022-07-15T11:54:21;27.70;31.60
52799;DHT22;38667;42.872;74.622;2022-07-15T11:56:53;28.00;30.00
52799;DHT22;38667;42.872;74.622;2022-07-15T11:59:19;28.00;31.20
52799;DHT22;38667;42.872;74.622;2022-07-15T12:01:45;27.80;31.20
52799;DHT22;38667;42.872;74.622;2022-07-15T12:04:13;27.60;31.50
52799;DHT22;38667;42.872;74.622;2022-07-15T12:06:40;27.60;31.40
52799;DHT22;38667;42.872;74.622;2022-07-15T12:09:07;27.60;31.40
52799;DHT22;38667;42.872;74.622;2022-07-15T12:11:34;27.60;31.40
52799;DHT22;38667;42.872;74.622;2022-07-15T12:14:03;27.80;30.60
52799;DHT22;38667;42.872;74.622;2022-07-15T12:16:31;28.10;30.70
52799;DHT22;38667;42.872;74.622;2022-07-15T12:18:59;28.00;30.60
52799;DHT22;38667;42.872;74.622;2022-07-15T12:21:27;27.90;30.00
52799;DHT22;38667;42.872;74.622;2022-07-15T12:24:01;27.80;30.50
52799;DHT22;38667;42.872;74.622;2022-07-15T12:26:28;28.20;29.80
52799;DHT22;38667;42.872;74.622;2022-07-15T12:28:55;28.10;30.20
52799;DHT22;38667;42.872;74.622;2022-07-15T12:31:26;28.10;30.40
52799;DHT22;38667;42.872;74.622;2022-07-15T12:33:53;27.90;30.80
52799;DHT22;38667;42.872;74.622;2022-07-15T12:36:21;27.80;30.60
52799;DHT22;38667;42.872;74.622;2022-07-15T12:39:05;27.70;31.70
52799;DHT22;38667;42.872;74.622;2022-07-15T12:41:32;27.60;31.40
52799;DHT22;38667;42.872;74.622;2022-07-15T12:44:00;27.60;32.00
52799;DHT22;38667;42.872;74.622;2022-07-15T12:47:00;27.60;31.90
52799;DHT22;38667;42.872;74.622;2022-07-15T12:49:47;27.50;31.70
52799;DHT22;38667;42.872;74.622;2022-07-15T12:52:16;27.50;31.90
52799;DHT22;38667;42.872;74.622;2022-07-15T12:54:44;27.70;31.40
52799;DHT22;38667;42.872;74.622;2022-07-15T12:57:30;27.60;31.50
52799;DHT22;38667;42.872;74.622;2022-07-15T12:59:58;27.50;31.70
52799;DHT22;38667;42.872;74.622;2022-07-15T13:02:25;27.40;31.40
52799;DHT22;38667;42.872;74.622;2022-07-15T13:04:52;27.50;31.00
52799;DHT22;38667;42.872;74.622;2022-07-15T13:07:18;27.50;31.70
52799;DHT22;38667;42.872;74.622;2022-07-15T13:09:46;27.50;31.00
52799;DHT22;38667;42.872;74.622;2022-07-15T13:12:13;27.40;31.10
52799;DHT22;38667;42.872;74.622;2022-07-15T13:14:40;27.50;30.30
52799;DHT22;38667;42.872;74.622;2022-07-15T13:17:07;27.50;30.20
52799;DHT22;38667;42.872;74.622;2022-07-15T13:19:35;27.50;30.30
52799;DHT22;38667;42.872;74.622;2022-07-15T13:22:01;27.50;30.30
52799;DHT22;38667;42.872;74.622;2022-07-15T13:24:28;27.40;30.50
52799;DHT22;38667;42.872;74.622;2022-07-15T13:26:56;27.50;30.50
52799;DHT22;38667;42.872;74.622;2022-07-15T13:29:22;27.80;29.80
52799;DHT22;38667;42.872;74.622;2022-07-15T13:31:49;28.20;30.60
52799;DHT22;38667;42.872;74.622;2022-07-15T13:34:15;28.40;29.80
52799;DHT22;38667;42.872;74.622;2022-07-15T13:36:41;28.70;29.50
52799;DHT22;38667;42.872;74.622;2022-07-15T13:39:08;28.90;29.30
52799;DHT22;38667;42.872;74.622;2022-07-15T13:41:34;29.10;28.70
52799;DHT22;38667;42.872;74.622;2022-07-15T13:44:02;29.30;27.80
52799;DHT22;38667;42.872;74.622;2022-07-15T13:46:28;29.40;27.60
52799;DHT22;38667;42.872;74.622;2022-07-15T13:48:54;29.60;27.30
52799;DHT22;38667;42.872;74.622;2022-07-15T13:51:21;29.60;27.00
52799;DHT22;38667;42.872;74.622;2022-07-15T13:53:47;29.70;26.40
52799;DHT22;38667;42.872;74.622;2022-07-15T13:56:13;29.80;25.40
52799;DHT22;38667;42.872;74.622;2022-07-15T13:58:40;29.90;25.50
52799;DHT22;38667;42.872;74.622;2022-07-15T14:01:07;29.90;25.40
52799;DHT22;38667;42.872;74.622;2022-07-15T14:03:34;30.00;25.60
52799;DHT22;38667;42.872;74.622;2022-07-15T14:06:00;30.00;25.60
52799;DHT22;38667;42.872;74.622;2022-07-15T14:08:26;30.00;25.50
52799;DHT22;38667;42.872;74.622;2022-07-15T14:10:53;30.00;25.20
52799;DHT22;38667;42.872;74.622;2022-07-15T14:13:19;30.10;25.00
52799;DHT22;38667;42.872;74.622;2022-07-15T14:15:46;30.10;25.00
52799;DHT22;38667;42.872;74.622;2022-07-15T14:18:14;30.10;24.70
52799;DHT22;38667;42.872;74.622;2022-07-15T14:20:40;30.10;25.20
52799;DHT22;38667;42.872;74.622;2022-07-15T14:23:06;30.10;25.00
52799;DHT22;38667;42.872;74.622;2022-07-15T14:25:33;30.10;25.10
52799;DHT22;38667;42.872;74.622;2022-07-15T14:28:00;30.00;25.20
52799;DHT22;38667;42.872;74.622;2022-07-15T14:30:26;30.00;25.40
52799;DHT22;38667;42.872;74.622;2022-07-15T14:32:52;29.90;25.20
52799;DHT22;38667;42.872;74.622;2022-07-15T14:35:20;29.90;25.50
52799;DHT22;38667;42.872;74.622;2022-07-15T14:37:47;29.80;25.60
52799;DHT22;38667;42.872;74.622;2022-07-15T14:40:13;29.70;25.70
52799;DHT22;38667;42.872;74.622;2022-07-15T14:42:39;29.70;25.80
52799;DHT22;38667;42.872;74.622;2022-07-15T14:45:06;29.60;25.90
52799;DHT22;38667;42.872;74.622;2022-07-15T14:47:33;29.50;26.10
52799;DHT22;38667;42.872;74.622;2022-07-15T14:49:59;29.40;26.80
52799;DHT22;38667;42.872;74.622;2022-07-15T14:52:27;29.30;27.60
52799;DHT22;38667;42.872;74.622;2022-07-15T14:54:53;29.20;28.00
52799;DHT22;38667;42.872;74.622;2022-07-15T14:57:19;29.00;28.90
52799;DHT22;38667;42.872;74.622;2022-07-15T14:59:46;28.80;29.60
52799;DHT22;38667;42.872;74.622;2022-07-15T15:02:12;28.60;30.50
52799;DHT22;38667;42.872;74.622;2022-07-15T15:04:38;28.40;30.50
52799;DHT22;38667;42.872;74.622;2022-07-15T15:07:05;28.30;32.20
52799;DHT22;38667;42.872;74.622;2022-07-15T15:09:33;28.20;33.20
52799;DHT22;38667;42.872;74.622;2022-07-15T15:11:59;28.00;31.90
52799;DHT22;38667;42.872;74.622;2022-07-15T15:14:25;28.10;30.40
52799;DHT22;38667;42.872;74.622;2022-07-15T15:16:52;28.30;28.80
52799;DHT22;38667;42.872;74.622;2022-07-15T15:19:18;28.50;28.70